createdAt,value
2018-11-11T00:00:24.136Z,4.00
2018-11-11T00:01:24.047Z,4.00
2018-11-11T00:02:24.045Z,4.00
2018-11-11T00:03:24.133Z,4.00
2018-11-11T00:04:24.171Z,4.00
2018-11-11T00:05:24.147Z,4.00
2018-11-11T00:06:26.025Z,4.00
2018-11-11T00:07:24.026Z,4.00
2018-11-11T00:08:24.043Z,4.00
2018-11-11T00:09:24.145Z,4.00
2018-11-11T00:10:24.100Z,4.00
2018-11-11T00:11:23.999Z,4.00
2018-11-11T00:12:24.005Z,4.00
2018-11-11T00:13:24.019Z,4.00
2018-11-11T00:14:24.019Z,4.00
2018-11-11T00:15:23.998Z,4.00
2018-11-11T00:16:24.011Z,4.00
2018-11-11T00:17:24.809Z,0.00
2018-11-11T00:18:24.704Z,4.00
2018-11-11T00:19:24.820Z,4.00
2018-11-11T00:20:25.535Z,0.00
2018-11-11T00:21:24.086Z,4.00
2018-11-11T00:22:25.043Z,4.00
2018-11-11T00:23:25.011Z,4.00
2018-11-11T00:24:24.001Z,4.00
2018-11-11T00:25:23.990Z,0.00
2018-11-11T00:26:23.971Z,4.00
2018-11-11T00:27:25.658Z,4.00
2018-11-11T00:28:25.502Z,4.00
2018-11-11T00:29:26.776Z,4.00
2018-11-11T00:30:24.027Z,4.00
2018-11-11T00:31:23.956Z,0.00
2018-11-11T00:32:23.997Z,4.00
2018-11-11T00:33:23.928Z,4.00
2018-11-11T00:34:23.929Z,4.00
2018-11-11T00:35:23.935Z,4.00
2018-11-11T00:36:23.961Z,4.00
2018-11-11T00:37:25.605Z,4.00
2018-11-11T00:38:25.508Z,4.00
2018-11-11T00:39:25.000Z,4.00
2018-11-11T00:40:24.061Z,4.00
2018-11-11T00:41:24.942Z,4.00
2018-11-11T00:42:23.948Z,4.00
2018-11-11T00:43:25.451Z,4.00
2018-11-11T00:44:24.868Z,4.00
2018-11-11T00:45:23.975Z,4.00
2018-11-11T00:46:23.942Z,4.00
2018-11-11T00:47:23.998Z,4.00
2018-11-11T00:48:25.711Z,4.00
2018-11-11T00:49:23.893Z,4.00
2018-11-11T00:50:24.062Z,4.00
2018-11-11T00:51:23.958Z,4.00
2018-11-11T00:52:23.913Z,4.00
2018-11-11T00:53:23.932Z,4.00
2018-11-11T00:54:25.502Z,4.00
2018-11-11T00:55:25.534Z,4.00
2018-11-11T00:56:23.940Z,4.00
2018-11-11T00:57:23.940Z,4.00
2018-11-11T00:58:24.980Z,4.00
2018-11-11T00:59:24.641Z,4.00
2018-11-11T01:00:23.995Z,4.00
2018-11-11T01:01:23.865Z,4.00
2018-11-11T01:02:23.881Z,4.00
2018-11-11T01:03:23.881Z,4.00
2018-11-11T01:04:23.873Z,4.00
2018-11-11T01:05:23.866Z,0.00
2018-11-11T01:06:23.859Z,4.00
2018-11-11T01:07:23.850Z,0.00
2018-11-11T01:08:24.539Z,0.00
2018-11-11T01:09:26.586Z,0.00
2018-11-11T01:10:23.881Z,0.00
2018-11-11T01:11:23.851Z,0.00
2018-11-11T01:12:26.487Z,0.00
2018-11-11T01:13:24.896Z,0.00
2018-11-11T01:14:23.830Z,0.00
2018-11-11T01:15:25.224Z,0.00
2018-11-11T01:16:23.830Z,0.00
2018-11-11T01:17:23.833Z,0.00
2018-11-11T01:18:23.908Z,0.00
2018-11-11T01:19:25.157Z,0.00
2018-11-11T01:20:23.892Z,0.00
2018-11-11T01:21:27.211Z,0.00
2018-11-11T01:22:24.524Z,0.00
2018-11-11T01:23:24.985Z,0.00
2018-11-11T01:24:24.929Z,0.00
2018-11-11T01:25:24.966Z,0.00
2018-11-11T01:26:24.964Z,0.00
2018-11-11T01:27:25.551Z,0.00
2018-11-11T01:28:28.005Z,0.00
2018-11-11T01:29:25.655Z,0.00
2018-11-11T01:30:25.976Z,0.00
2018-11-11T01:31:25.059Z,0.00
2018-11-11T01:32:25.969Z,0.00
2018-11-11T01:33:25.477Z,0.00
2018-11-11T01:34:25.422Z,0.00
2018-11-11T01:35:25.662Z,0.00
2018-11-11T01:36:25.669Z,0.00
2018-11-11T01:37:25.661Z,0.00
2018-11-11T01:38:27.207Z,0.00
2018-11-11T01:39:27.191Z,0.00
2018-11-11T01:40:27.192Z,0.00
2018-11-11T01:41:27.224Z,0.00
2018-11-11T01:42:24.902Z,0.00
2018-11-11T01:43:26.930Z,0.00
2018-11-11T01:44:25.335Z,0.00
2018-11-11T01:45:27.012Z,0.00
2018-11-11T01:46:25.316Z,0.00
2018-11-11T01:47:25.335Z,0.00
2018-11-11T01:48:29.161Z,0.00
2018-11-11T01:49:25.266Z,0.00
2018-11-11T01:50:25.325Z,0.00
2018-11-11T01:51:25.093Z,0.00
2018-11-11T01:52:25.194Z,0.00
2018-11-11T01:53:25.176Z,0.00
2018-11-11T01:54:25.098Z,0.00
2018-11-11T01:55:25.289Z,0.00
2018-11-11T01:56:25.220Z,0.00
2018-11-11T01:57:25.156Z,0.00
2018-11-11T01:58:25.176Z,0.00
2018-11-11T01:59:25.268Z,0.00
2018-11-11T02:00:27.036Z,0.00
2018-11-11T02:01:25.196Z,0.00
2018-11-11T02:02:25.095Z,0.00
2018-11-11T02:03:25.192Z,0.00
2018-11-11T02:04:25.304Z,0.00
2018-11-11T02:05:25.194Z,0.00
2018-11-11T02:06:25.296Z,0.00
2018-11-11T02:07:25.033Z,0.00
2018-11-11T02:08:25.072Z,0.00
2018-11-11T02:09:25.085Z,0.00
2018-11-11T02:10:25.055Z,0.00
2018-11-11T02:11:25.114Z,0.00
2018-11-11T02:12:25.071Z,0.00
2018-11-11T02:13:25.050Z,0.00
2018-11-11T02:14:25.664Z,0.00
2018-11-11T02:15:25.126Z,0.00
2018-11-11T02:16:24.805Z,0.00
2018-11-11T02:17:25.203Z,0.00
2018-11-11T02:18:25.272Z,0.00
2018-11-11T02:19:25.175Z,0.00
2018-11-11T02:20:25.314Z,0.00
2018-11-11T02:21:25.164Z,0.00
2018-11-11T02:22:25.204Z,0.00
2018-11-11T02:23:25.535Z,0.00
2018-11-11T02:24:25.306Z,0.00
2018-11-11T02:25:25.287Z,0.00
2018-11-11T02:26:25.259Z,0.00
2018-11-11T02:27:25.236Z,0.00
2018-11-11T02:28:25.346Z,0.00
2018-11-11T02:29:25.205Z,0.00
2018-11-11T02:30:25.250Z,0.00
2018-11-11T02:31:25.242Z,0.00
2018-11-11T02:32:25.309Z,0.00
2018-11-11T02:33:24.854Z,0.00
2018-11-11T02:34:25.312Z,0.00
2018-11-11T02:35:25.341Z,0.00
2018-11-11T02:36:25.334Z,0.00
2018-11-11T02:37:25.192Z,0.00
2018-11-11T02:38:24.740Z,0.00
2018-11-11T02:39:25.208Z,0.00
2018-11-11T02:40:25.165Z,0.00
2018-11-11T02:41:24.968Z,0.00
2018-11-11T02:42:26.975Z,0.00
2018-11-11T02:43:26.854Z,0.00
2018-11-11T02:44:25.036Z,0.00
2018-11-11T02:45:26.856Z,0.00
2018-11-11T02:46:24.987Z,0.00
2018-11-11T02:47:25.049Z,0.00
2018-11-11T02:48:25.018Z,0.00
2018-11-11T02:49:25.032Z,0.00
2018-11-11T02:50:25.058Z,0.00
2018-11-11T02:51:25.029Z,0.00
2018-11-11T02:52:24.990Z,0.00
2018-11-11T02:53:25.426Z,0.00
2018-11-11T02:54:25.192Z,0.00
2018-11-11T02:55:25.050Z,0.00
2018-11-11T02:56:27.092Z,0.00
2018-11-11T02:57:25.303Z,0.00
2018-11-11T02:58:25.286Z,0.00
2018-11-11T02:59:25.028Z,0.00
2018-11-11T03:00:25.191Z,0.00
2018-11-11T03:01:25.545Z,0.00
2018-11-11T03:02:24.992Z,0.00
2018-11-11T03:03:25.167Z,0.00
2018-11-11T03:04:25.309Z,0.00
2018-11-11T03:05:25.136Z,0.00
2018-11-11T03:06:25.086Z,0.00
2018-11-11T03:07:25.157Z,0.00
2018-11-11T03:08:25.005Z,0.00
2018-11-11T03:09:25.003Z,0.00
2018-11-11T03:10:24.967Z,0.00
2018-11-11T03:11:25.031Z,0.00
2018-11-11T03:12:25.197Z,0.00
2018-11-11T03:13:26.015Z,0.00
2018-11-11T03:14:25.071Z,0.00
2018-11-11T03:15:27.219Z,0.00
2018-11-11T03:16:25.032Z,0.00
2018-11-11T03:17:27.248Z,0.00
2018-11-11T03:18:25.256Z,0.00
2018-11-11T03:19:24.987Z,0.00
2018-11-11T03:20:25.217Z,0.00
2018-11-11T03:21:24.975Z,0.00
2018-11-11T03:22:25.241Z,0.00
2018-11-11T03:23:25.025Z,0.00
2018-11-11T03:24:25.189Z,0.00
2018-11-11T03:25:24.706Z,0.00
2018-11-11T03:26:25.215Z,0.00
2018-11-11T03:27:25.212Z,0.00
2018-11-11T03:28:25.191Z,0.00
2018-11-11T03:29:25.216Z,0.00
2018-11-11T03:30:25.201Z,0.00
2018-11-11T03:31:24.986Z,0.00
2018-11-11T03:32:25.184Z,0.00
2018-11-11T03:33:24.945Z,0.00
2018-11-11T03:34:25.248Z,0.00
2018-11-11T03:35:25.602Z,0.00
2018-11-11T03:36:25.184Z,0.00
2018-11-11T03:37:25.016Z,0.00
2018-11-11T03:38:25.082Z,0.00
2018-11-11T03:39:25.201Z,0.00
2018-11-11T03:40:25.065Z,0.00
2018-11-11T03:41:25.191Z,0.00
2018-11-11T03:42:25.013Z,0.00
2018-11-11T03:43:25.031Z,0.00
2018-11-11T03:44:25.310Z,0.00
2018-11-11T03:45:24.965Z,0.00
2018-11-11T03:46:24.988Z,0.00
2018-11-11T03:47:25.223Z,0.00
2018-11-11T03:48:25.221Z,0.00
2018-11-11T03:49:25.037Z,0.00
2018-11-11T03:50:31.207Z,0.00
2018-11-11T03:51:24.686Z,0.00
2018-11-11T03:52:24.744Z,0.00
2018-11-11T03:53:24.969Z,0.00
2018-11-11T03:54:25.225Z,0.00
2018-11-11T03:55:25.045Z,0.00
2018-11-11T03:56:25.223Z,0.00
2018-11-11T03:57:26.935Z,0.00
2018-11-11T03:58:25.252Z,0.00
2018-11-11T03:59:24.992Z,0.00
2018-11-11T04:00:25.220Z,0.00
2018-11-11T04:01:25.229Z,0.00
2018-11-11T04:02:25.221Z,0.00
2018-11-11T04:03:25.200Z,0.00
2018-11-11T04:04:25.008Z,0.00
2018-11-11T04:05:26.506Z,0.00
2018-11-11T04:06:24.707Z,0.00
2018-11-11T04:07:26.727Z,0.00
2018-11-11T04:08:24.717Z,0.00
2018-11-11T04:09:24.698Z,0.00
2018-11-11T04:10:26.619Z,0.00
2018-11-11T04:11:24.724Z,0.00
2018-11-11T04:12:26.490Z,0.00
2018-11-11T04:13:25.216Z,0.00
2018-11-11T04:14:26.722Z,0.00
2018-11-11T04:15:26.723Z,0.00
2018-11-11T04:16:26.518Z,0.00
2018-11-11T04:17:24.836Z,0.00
2018-11-11T04:18:24.731Z,0.00
2018-11-11T04:19:24.808Z,0.00
2018-11-11T04:20:26.713Z,0.00
2018-11-11T04:21:24.705Z,0.00
2018-11-11T04:22:26.729Z,0.00
2018-11-11T04:23:24.706Z,0.00
2018-11-11T04:24:24.631Z,0.00
2018-11-11T04:25:24.619Z,0.00
2018-11-11T04:26:24.711Z,0.00
2018-11-11T04:27:24.713Z,0.00
2018-11-11T04:28:24.713Z,0.00
2018-11-11T04:30:24.717Z,0.00
2018-11-11T04:31:24.719Z,0.00
2018-11-11T04:32:24.707Z,0.00
2018-11-11T04:33:24.713Z,0.00
2018-11-11T04:34:24.712Z,0.00
2018-11-11T04:35:24.714Z,0.00
2018-11-11T04:36:24.729Z,0.00
2018-11-11T04:37:24.754Z,0.00
2018-11-11T04:38:24.534Z,0.00
2018-11-11T04:39:24.662Z,0.00
2018-11-11T04:40:24.525Z,0.00
2018-11-11T04:41:24.563Z,0.00
2018-11-11T04:42:24.548Z,0.00
2018-11-11T04:43:24.737Z,0.00
2018-11-11T04:44:24.537Z,0.00
2018-11-11T04:45:24.567Z,0.00
2018-11-11T04:46:26.766Z,0.00
2018-11-11T04:47:24.734Z,0.00
2018-11-11T04:48:24.568Z,0.00
2018-11-11T04:49:24.770Z,0.00
2018-11-11T04:50:24.676Z,0.00
2018-11-11T04:51:24.648Z,0.00
2018-11-11T04:52:24.771Z,0.00
2018-11-11T04:53:24.743Z,0.00
2018-11-11T04:54:24.722Z,0.00
2018-11-11T04:55:26.472Z,0.00
2018-11-11T04:56:24.727Z,0.00
2018-11-11T04:57:25.067Z,0.00
2018-11-11T04:58:24.659Z,0.00
2018-11-11T04:59:24.642Z,0.00
2018-11-11T05:00:25.105Z,0.00
2018-11-11T05:01:24.653Z,0.00
2018-11-11T05:02:24.717Z,0.00
2018-11-11T05:03:26.715Z,0.00
2018-11-11T05:04:24.744Z,0.00
2018-11-11T05:05:24.722Z,0.00
2018-11-11T05:06:24.719Z,0.00
2018-11-11T05:07:24.716Z,0.00
2018-11-11T05:08:24.719Z,0.00
2018-11-11T05:09:24.617Z,0.00
2018-11-11T05:10:24.465Z,0.00
2018-11-11T05:11:24.573Z,0.00
2018-11-11T05:12:24.490Z,0.00
2018-11-11T05:13:24.473Z,0.00
2018-11-11T05:14:24.771Z,0.00
2018-11-11T05:15:24.681Z,0.00
2018-11-11T05:16:24.519Z,0.00
2018-11-11T05:17:24.522Z,0.00
2018-11-11T05:18:24.562Z,0.00
2018-11-11T05:19:24.575Z,0.00
2018-11-11T05:20:24.562Z,0.00
2018-11-11T05:21:24.586Z,0.00
2018-11-11T05:22:24.176Z,0.00
2018-11-11T05:23:24.196Z,0.00
2018-11-11T05:24:24.609Z,0.00
2018-11-11T05:25:24.642Z,0.00
2018-11-11T05:26:24.640Z,0.00
2018-11-11T05:27:24.565Z,0.00
2018-11-11T05:28:24.635Z,0.00
2018-11-11T05:29:24.642Z,0.00
2018-11-11T05:30:24.555Z,0.00
2018-11-11T05:31:24.570Z,0.00
2018-11-11T05:32:24.595Z,0.00
2018-11-11T05:33:24.530Z,0.00
2018-11-11T05:34:24.650Z,0.00
2018-11-11T05:35:24.656Z,0.00
2018-11-11T05:36:24.638Z,0.00
2018-11-11T05:37:24.656Z,0.00
2018-11-11T05:38:24.716Z,0.00
2018-11-11T05:39:25.682Z,0.00
2018-11-11T05:40:24.627Z,0.00
2018-11-11T05:41:24.503Z,0.00
2018-11-11T05:42:24.530Z,0.00
2018-11-11T05:43:26.401Z,0.00
2018-11-11T05:44:24.578Z,0.00
2018-11-11T05:45:23.745Z,0.00
2018-11-11T05:46:24.503Z,0.00
2018-11-11T05:47:24.551Z,0.00
2018-11-11T05:48:24.555Z,0.00
2018-11-11T05:49:24.590Z,0.00
2018-11-11T05:50:24.799Z,0.00
2018-11-11T05:51:25.067Z,0.00
2018-11-11T05:52:25.214Z,0.00
2018-11-11T05:53:24.509Z,0.00
2018-11-11T05:54:24.559Z,0.00
2018-11-11T05:55:24.781Z,0.00
2018-11-11T05:56:25.093Z,0.00
2018-11-11T05:57:26.332Z,0.00
2018-11-11T05:58:24.736Z,0.00
2018-11-11T05:59:24.779Z,0.00
2018-11-11T06:00:24.730Z,0.00
2018-11-11T06:01:24.755Z,0.00
2018-11-11T06:02:24.759Z,0.00
2018-11-11T06:03:24.555Z,0.00
2018-11-11T06:04:24.539Z,0.00
2018-11-11T06:05:24.009Z,0.00
2018-11-11T06:06:24.773Z,0.00
2018-11-11T06:07:24.559Z,0.00
2018-11-11T06:08:24.251Z,0.00
2018-11-11T06:09:24.271Z,0.00
2018-11-11T06:11:00.273Z,0.00
2018-11-11T06:11:24.735Z,0.00
2018-11-11T06:12:24.854Z,0.00
2018-11-11T06:13:24.741Z,0.00
2018-11-11T06:14:24.603Z,0.00
2018-11-11T06:15:24.741Z,0.00
2018-11-11T06:16:24.745Z,0.00
2018-11-11T06:17:24.567Z,0.00
2018-11-11T06:18:24.630Z,4.00
2018-11-11T06:19:25.087Z,4.00
2018-11-11T06:20:24.537Z,4.00
2018-11-11T06:21:24.783Z,0.00
2018-11-11T06:22:24.785Z,4.00
2018-11-11T06:23:24.587Z,4.00
2018-11-11T06:24:24.626Z,4.00
2018-11-11T06:25:25.103Z,4.00
2018-11-11T06:27:24.565Z,8.00
2018-11-11T06:28:25.093Z,8.00
2018-11-11T06:29:24.835Z,8.00
2018-11-11T06:30:24.279Z,12.00
2018-11-11T06:31:26.301Z,12.00
2018-11-11T06:32:38.459Z,12.00
2018-11-11T06:33:24.795Z,12.00
2018-11-11T06:34:26.278Z,16.00
2018-11-11T06:35:26.257Z,16.00
2018-11-11T06:36:26.253Z,16.00
2018-11-11T06:37:26.300Z,20.00
2018-11-11T06:38:44.646Z,20.00
2018-11-11T06:39:24.457Z,24.00
2018-11-11T06:40:24.578Z,28.00
2018-11-11T06:41:26.131Z,28.00
2018-11-11T06:42:24.562Z,28.00
2018-11-11T06:43:26.248Z,32.00
2018-11-11T06:44:24.468Z,28.00
2018-11-11T06:45:24.506Z,32.00
2018-11-11T06:46:45.188Z,32.00
2018-11-11T06:47:24.647Z,36.00
2018-11-11T06:48:24.569Z,36.00
2018-11-11T06:49:24.482Z,44.00
2018-11-11T06:50:24.058Z,48.00
2018-11-11T06:51:24.525Z,56.00
2018-11-11T06:52:28.515Z,60.00
2018-11-11T06:53:23.971Z,64.00
2018-11-11T06:54:24.134Z,72.00
2018-11-11T06:55:24.385Z,72.00
2018-11-11T06:56:23.888Z,72.00
2018-11-11T06:57:24.170Z,72.00
2018-11-11T06:58:24.220Z,76.00
2018-11-11T06:59:23.893Z,80.00
2018-11-11T07:00:24.268Z,92.00
2018-11-11T07:01:59.499Z,104.00
2018-11-11T07:02:24.228Z,112.00
2018-11-11T07:03:24.221Z,120.00
2018-11-11T07:04:24.166Z,128.00
2018-11-11T07:05:23.886Z,136.00
2018-11-11T07:06:24.173Z,132.00
2018-11-11T07:07:24.260Z,124.00
2018-11-11T07:08:23.907Z,120.00
2018-11-11T07:09:24.580Z,120.00
2018-11-11T07:10:24.695Z,120.00
2018-11-11T07:11:24.324Z,132.00
2018-11-11T07:12:23.871Z,160.00
2018-11-11T07:13:24.172Z,196.00
2018-11-11T07:14:24.303Z,212.00
2018-11-11T07:15:24.260Z,240.00
2018-11-11T07:16:24.217Z,260.00
2018-11-11T07:17:23.847Z,288.00
2018-11-11T07:18:24.179Z,276.00
2018-11-11T07:19:23.846Z,260.00
2018-11-11T07:20:24.280Z,244.00
2018-11-11T07:21:24.203Z,248.00
2018-11-11T07:22:24.312Z,256.00
2018-11-11T07:23:24.807Z,264.00
2018-11-11T07:24:24.286Z,232.00
2018-11-11T07:26:57.134Z,192.00
2018-11-11T07:27:57.562Z,196.00
2018-11-11T07:29:51.924Z,228.00
2018-11-11T07:30:52.764Z,240.00
2018-11-11T07:31:52.464Z,260.00
2018-11-11T07:32:53.091Z,284.00
2018-11-11T07:33:58.942Z,300.00
2018-11-11T07:34:52.320Z,300.00
2018-11-11T07:35:52.436Z,308.00
2018-11-11T07:36:52.238Z,336.00
2018-11-11T07:37:52.239Z,352.00
2018-11-11T07:38:52.268Z,364.00
2018-11-11T07:39:52.151Z,396.00
2018-11-11T07:40:52.298Z,424.00
2018-11-11T07:41:52.506Z,464.00
2018-11-11T07:42:52.409Z,516.00
2018-11-11T07:43:51.896Z,652.00
2018-11-11T07:44:52.404Z,836.00
2018-11-11T07:45:52.226Z,864.00
2018-11-11T07:46:52.230Z,780.00
2018-11-11T07:47:52.876Z,776.00
2018-11-11T07:48:52.761Z,736.00
2018-11-11T07:49:52.263Z,680.00
2018-11-11T07:50:52.319Z,624.00
2018-11-11T07:51:52.305Z,480.00
2018-11-11T07:52:52.509Z,408.00
2018-11-11T07:53:52.230Z,308.00
2018-11-11T07:54:52.809Z,356.00
2018-11-11T07:55:52.295Z,520.00
2018-11-11T07:56:52.505Z,832.00
2018-11-11T07:57:52.768Z,856.00
2018-11-11T07:58:51.754Z,924.00
2018-11-11T07:59:53.968Z,940.00
2018-11-11T08:00:52.421Z,996.00
2018-11-11T08:01:52.218Z,1072.00
2018-11-11T08:02:52.229Z,1104.00
2018-11-11T08:03:52.246Z,1024.00
2018-11-11T08:04:52.465Z,1064.00
2018-11-11T08:05:52.764Z,1164.00
2018-11-11T08:06:52.247Z,1056.00
2018-11-11T08:07:52.307Z,892.00
2018-11-11T08:08:52.810Z,776.00
2018-11-11T08:09:52.772Z,856.00
2018-11-11T08:10:52.475Z,1008.00
2018-11-11T08:11:52.525Z,1248.00
2018-11-11T08:12:52.233Z,1388.00
2018-11-11T08:13:52.427Z,1412.00
2018-11-11T08:14:52.360Z,1600.00
2018-11-11T08:15:52.412Z,1416.00
2018-11-11T08:16:52.491Z,1444.00
2018-11-11T08:17:54.193Z,1496.00
2018-11-11T08:18:52.512Z,1404.00
2018-11-11T08:19:52.681Z,1316.00
2018-11-11T08:20:52.558Z,1188.00
2018-11-11T08:21:52.243Z,1092.00
2018-11-11T08:22:54.229Z,1216.00
2018-11-11T08:23:52.266Z,1384.00
2018-11-11T08:24:52.241Z,1548.00
2018-11-11T08:25:52.411Z,1456.00
2018-11-11T08:26:52.335Z,1364.00
2018-11-11T08:27:52.515Z,1320.00
2018-11-11T08:28:52.981Z,1360.00
2018-11-11T08:29:54.245Z,1392.00
2018-11-11T08:30:52.483Z,1320.00
2018-11-11T08:31:52.775Z,1312.00
2018-11-11T08:32:51.767Z,1248.00
2018-11-11T08:33:52.267Z,1120.00
2018-11-11T08:34:52.416Z,1112.00
2018-11-11T08:35:52.534Z,1124.00
2018-11-11T08:37:51.924Z,1240.00
2018-11-11T08:38:54.826Z,1172.00
2018-11-11T08:39:54.936Z,1236.00
2018-11-11T08:40:52.518Z,1332.00
2018-11-11T08:41:52.501Z,1464.00
2018-11-11T08:42:52.762Z,1716.00
2018-11-11T08:43:54.442Z,1892.00
2018-11-11T08:44:52.450Z,1528.00
2018-11-11T08:45:54.427Z,1448.00
2018-11-11T08:46:58.785Z,1356.00
2018-11-11T08:47:52.423Z,1244.00
2018-11-11T08:48:52.531Z,1164.00
2018-11-11T08:49:54.374Z,1148.00
2018-11-11T08:50:54.319Z,1200.00
2018-11-11T08:51:52.349Z,1640.00
2018-11-11T08:53:20.913Z,2232.00
2018-11-11T08:53:53.976Z,2620.00
2018-11-11T08:54:53.796Z,2448.00
2018-11-11T08:55:53.833Z,1964.00
2018-11-11T08:56:52.242Z,1808.00
2018-11-11T08:57:52.285Z,2072.00
2018-11-11T08:58:54.292Z,2384.00
2018-11-11T08:59:51.930Z,2760.00
2018-11-11T09:00:53.952Z,2552.00
2018-11-11T09:01:53.945Z,2092.00
2018-11-11T09:04:26.188Z,2244.00
2018-11-11T09:05:26.114Z,3136.00
2018-11-11T09:07:44.087Z,3428.00
2018-11-11T09:08:20.956Z,2980.00
2018-11-11T09:10:15.295Z,3024.00
2018-11-11T09:11:16.068Z,3468.00
2018-11-11T09:13:10.236Z,3672.00
2018-11-11T09:14:10.408Z,3648.00
2018-11-11T09:16:04.324Z,3084.00
2018-11-11T09:17:04.583Z,2848.00
2018-11-11T09:18:58.772Z,2788.00
2018-11-11T09:19:59.744Z,2676.00
2018-11-11T09:21:54.238Z,2596.00
2018-11-11T09:22:54.289Z,2752.00
2018-11-11T09:24:48.949Z,2440.00
2018-11-11T09:25:49.514Z,2112.00
2018-11-11T09:27:43.784Z,1648.00
2018-11-11T09:28:44.068Z,1628.00
2018-11-11T09:30:38.028Z,1772.00
2018-11-11T09:31:38.418Z,1700.00
2018-11-11T09:33:32.563Z,1500.00
2018-11-11T09:34:32.599Z,1312.00
2018-11-11T09:36:26.850Z,1016.00
2018-11-11T09:37:27.337Z,1132.00
2018-11-11T09:39:22.762Z,1328.00
2018-11-11T09:40:22.423Z,1384.00
2018-11-11T09:42:16.245Z,1392.00
2018-11-11T09:43:17.039Z,1360.00
2018-11-11T09:45:10.248Z,1592.00
2018-11-11T09:46:10.098Z,1452.00
2018-11-11T09:48:05.057Z,852.00
2018-11-11T09:49:05.810Z,932.00
2018-11-11T09:51:33.354Z,1268.00
2018-11-11T09:52:32.213Z,1560.00
2018-11-11T09:54:27.545Z,1268.00
2018-11-11T09:55:28.223Z,1100.00
2018-11-11T09:57:22.142Z,1032.00
2018-11-11T09:58:22.077Z,1180.00
2018-11-11T10:00:17.924Z,1316.00
2018-11-11T10:01:16.889Z,2004.00
2018-11-11T10:03:12.575Z,3592.00
2018-11-11T10:04:11.460Z,3940.00
2018-11-11T10:06:06.146Z,4568.00
2018-11-11T10:07:06.201Z,4572.00
2018-11-11T10:09:12.661Z,4940.00
2018-11-11T10:10:12.577Z,13760.00
2018-11-11T10:12:22.612Z,13616.00
2018-11-11T10:13:08.037Z,13144.00
2018-11-11T10:15:01.994Z,15040.00
2018-11-11T10:16:02.249Z,14496.00
2018-11-11T10:17:57.551Z,4428.00
2018-11-11T10:18:57.346Z,4904.00
2018-11-11T10:22:24.983Z,9184.00
2018-11-11T10:23:25.911Z,14784.00
2018-11-11T10:25:19.658Z,15520.00
2018-11-11T10:26:19.698Z,16640.00
2018-11-11T10:29:03.637Z,16608.00
2018-11-11T10:29:37.917Z,4240.00
2018-11-11T10:31:32.594Z,2492.00
2018-11-11T10:32:32.497Z,1916.00
2018-11-11T10:34:27.244Z,2888.00
2018-11-11T10:36:44.954Z,2212.00
2018-11-11T10:39:42.725Z,12648.00
2018-11-11T10:40:18.220Z,3888.00
2018-11-11T10:42:15.676Z,2856.00
2018-11-11T10:43:16.494Z,2692.00
2018-11-11T10:44:16.352Z,2656.00
2018-11-11T10:45:16.423Z,2320.00
2018-11-11T10:46:14.969Z,2268.00
2018-11-11T10:47:18.411Z,2084.00
2018-11-11T10:48:42.677Z,2076.00
2018-11-11T10:49:15.101Z,2856.00
2018-11-11T10:50:15.597Z,2784.00
2018-11-11T10:51:14.890Z,3224.00
2018-11-11T10:52:14.999Z,3676.00
2018-11-11T10:55:19.105Z,2136.00
2018-11-11T10:56:34.732Z,1572.00
2018-11-11T10:57:18.111Z,1820.00
2018-11-11T10:59:15.461Z,1408.00
2018-11-11T11:01:27.959Z,1136.00
2018-11-11T11:02:27.735Z,1252.00
2018-11-11T11:04:36.572Z,1180.00
2018-11-11T11:05:22.416Z,1068.00
2018-11-11T11:06:22.427Z,832.00
2018-11-11T11:07:22.397Z,856.00
2018-11-11T11:08:23.134Z,808.00
2018-11-11T11:09:22.397Z,1100.00
2018-11-11T11:10:22.902Z,960.00
2018-11-11T11:11:46.197Z,1052.00
2018-11-11T11:12:22.943Z,828.00
2018-11-11T11:13:23.413Z,824.00
2018-11-11T11:14:22.376Z,800.00
2018-11-11T11:18:21.290Z,748.00
2018-11-11T11:19:03.541Z,752.00
2018-11-11T11:21:00.825Z,1040.00
2018-11-11T11:22:01.181Z,1452.00
2018-11-11T11:23:00.840Z,1156.00
2018-11-11T11:24:00.797Z,1216.00
2018-11-11T11:25:02.149Z,1376.00
2018-11-11T11:26:00.810Z,1408.00
2018-11-11T11:27:00.880Z,1404.00
2018-11-11T11:28:00.870Z,1452.00
2018-11-11T11:30:35.945Z,1048.00
2018-11-11T11:31:34.818Z,992.00
2018-11-11T11:35:03.628Z,1276.00
2018-11-11T11:36:02.235Z,1304.00
2018-11-11T11:37:57.609Z,1232.00
2018-11-11T11:40:26.013Z,1172.00
2018-11-11T11:41:26.064Z,1092.00
2018-11-11T11:42:40.930Z,992.00
2018-11-11T11:43:26.149Z,936.00
2018-11-11T11:44:29.668Z,1060.00
2018-11-11T11:45:27.813Z,1424.00
2018-11-11T11:46:26.033Z,2004.00
2018-11-11T11:47:26.023Z,2720.00
2018-11-11T11:48:25.977Z,2648.00
2018-11-11T11:49:25.975Z,3564.00
2018-11-11T11:50:26.070Z,4424.00
2018-11-11T11:51:26.035Z,4168.00
2018-11-11T11:52:26.917Z,2788.00
2018-11-11T11:53:26.030Z,2220.00
2018-11-11T11:54:26.029Z,2088.00
2018-11-11T11:55:25.980Z,2208.00
2018-11-11T11:56:26.932Z,2192.00
2018-11-11T11:57:26.116Z,1920.00
2018-11-11T11:59:59.431Z,2012.00
2018-11-11T12:02:14.166Z,1480.00
2018-11-11T12:03:14.235Z,1112.00
2018-11-11T12:05:10.962Z,1192.00
2018-11-11T12:06:10.692Z,1208.00
2018-11-11T12:07:13.942Z,1264.00
2018-11-11T12:08:13.475Z,1576.00
2018-11-11T12:09:10.780Z,1568.00
2018-11-11T12:10:11.401Z,1820.00
2018-11-11T12:11:10.700Z,2104.00
2018-11-11T12:12:12.362Z,2488.00
2018-11-11T12:13:11.461Z,2904.00
2018-11-11T12:14:13.019Z,3384.00
2018-11-11T12:15:12.331Z,5188.00
2018-11-11T12:16:11.712Z,4584.00
2018-11-11T12:17:10.728Z,7996.00
2018-11-11T12:18:10.675Z,7540.00
2018-11-11T12:20:44.204Z,5980.00
2018-11-11T12:21:46.228Z,4600.00
2018-11-11T12:23:38.828Z,2892.00
2018-11-11T12:24:38.852Z,3052.00
2018-11-11T12:26:33.451Z,1988.00
2018-11-11T12:27:34.446Z,1636.00
2018-11-11T12:31:03.415Z,2040.00
2018-11-11T12:32:03.408Z,1792.00
2018-11-11T12:33:59.884Z,1828.00
2018-11-11T12:34:59.743Z,1760.00
2018-11-11T12:36:54.355Z,1632.00
2018-11-11T12:37:54.388Z,1496.00
2018-11-11T12:39:49.240Z,1620.00
2018-11-11T12:40:49.030Z,1664.00
2018-11-11T12:42:53.024Z,1392.00
2018-11-11T12:45:26.633Z,1316.00
2018-11-11T12:45:58.561Z,1356.00
2018-11-11T12:47:53.346Z,1392.00
2018-11-11T12:50:08.014Z,1396.00
2018-11-11T12:51:08.098Z,1584.00
2018-11-11T12:53:02.512Z,2600.00
2018-11-11T12:54:02.487Z,3812.00
2018-11-11T12:55:57.285Z,4384.00
2018-11-11T12:56:58.875Z,4396.00
2018-11-11T12:59:27.540Z,4684.00
2018-11-11T13:00:15.862Z,5556.00
2018-11-11T13:01:14.385Z,4364.00
2018-11-11T13:02:14.414Z,4076.00
2018-11-11T13:03:14.511Z,4240.00
2018-11-11T13:04:14.433Z,4940.00
2018-11-11T13:05:15.090Z,5712.00
2018-11-11T13:06:14.441Z,6336.00
2018-11-11T13:07:14.370Z,15488.00
2018-11-11T13:08:14.372Z,12408.00
2018-11-11T13:09:17.419Z,8936.00
2018-11-11T13:10:14.379Z,5296.00
2018-11-11T13:11:14.500Z,5032.00
2018-11-11T13:12:14.454Z,4276.00
2018-11-11T13:13:14.361Z,3884.00
2018-11-11T13:14:17.140Z,3572.00
2018-11-11T13:15:17.251Z,3436.00
2018-11-11T13:16:15.308Z,3404.00
2018-11-11T13:17:14.447Z,3560.00
2018-11-11T13:18:15.507Z,3548.00
2018-11-11T13:19:15.240Z,2968.00
2018-11-11T13:20:14.368Z,2064.00
2018-11-11T13:21:14.357Z,1880.00
2018-11-11T13:22:14.616Z,1852.00
2018-11-11T13:23:14.353Z,1588.00
2018-11-11T13:24:15.399Z,1532.00
2018-11-11T13:25:14.420Z,1628.00
2018-11-11T13:26:14.375Z,1684.00
2018-11-11T13:27:15.134Z,1744.00
2018-11-11T13:28:14.336Z,1656.00
2018-11-11T13:29:16.173Z,1516.00
2018-11-11T13:30:18.266Z,1468.00
2018-11-11T13:31:14.326Z,1188.00
2018-11-11T13:32:14.370Z,1060.00
2018-11-11T13:33:19.001Z,1008.00
2018-11-11T13:34:14.359Z,968.00
2018-11-11T13:35:14.428Z,1036.00
2018-11-11T13:36:14.373Z,996.00
2018-11-11T13:37:17.524Z,796.00
2018-11-11T13:38:14.364Z,776.00
2018-11-11T13:39:15.186Z,700.00
2018-11-11T13:40:14.394Z,684.00
2018-11-11T13:41:14.362Z,728.00
2018-11-11T13:42:15.477Z,776.00
2018-11-11T13:43:14.438Z,808.00
2018-11-11T13:44:15.060Z,792.00
2018-11-11T13:45:14.324Z,764.00
2018-11-11T13:46:14.408Z,780.00
2018-11-11T13:47:29.147Z,792.00
2018-11-11T13:48:15.428Z,776.00
2018-11-11T13:49:16.001Z,728.00
2018-11-11T13:50:15.731Z,676.00
2018-11-11T13:52:47.787Z,632.00
2018-11-11T13:55:20.026Z,600.00
2018-11-11T13:56:20.054Z,588.00
2018-11-11T13:58:30.482Z,540.00
2018-11-11T13:59:15.949Z,512.00
2018-11-11T14:00:15.771Z,488.00
2018-11-11T14:01:15.782Z,476.00
2018-11-11T14:02:15.759Z,488.00
2018-11-11T14:03:15.771Z,512.00
2018-11-11T14:04:15.774Z,548.00
2018-11-11T14:05:15.748Z,584.00